createdAt,value
2022-10-28T00:00:48.785Z,12.18
2022-10-28T00:03:15.499Z,12.12
2022-10-28T00:05:42.065Z,12.12
2022-10-28T00:08:08.539Z,12.12
2022-10-28T00:10:35.043Z,12.15
2022-10-28T00:13:01.467Z,12.20
2022-10-28T00:15:28.017Z,12.20
2022-10-28T00:17:54.774Z,12.16
2022-10-28T00:20:21.408Z,12.12
2022-10-28T00:22:47.864Z,12.13
2022-10-28T00:25:14.336Z,12.15
2022-10-28T00:27:40.826Z,12.10
2022-10-28T00:30:07.765Z,12.17
2022-10-28T00:32:34.192Z,12.13
2022-10-28T00:35:00.643Z,12.14
2022-10-28T00:37:27.069Z,12.13
2022-10-28T00:39:53.520Z,12.23
2022-10-28T00:42:22.143Z,12.21
2022-10-28T00:45:02.398Z,12.22
2022-10-28T00:47:36.597Z,12.27
2022-10-28T00:50:21.167Z,12.23
2022-10-28T00:52:55.922Z,12.30
2022-10-28T00:55:24.189Z,12.21
2022-10-28T00:57:50.887Z,12.23
2022-10-28T01:00:17.697Z,12.25
2022-10-28T01:02:48.071Z,12.14
2022-10-28T01:05:17.819Z,12.20
2022-10-28T01:07:44.836Z,12.21
2022-10-28T01:10:13.558Z,12.24
2022-10-28T01:13:05.141Z,12.23
2022-10-28T01:16:07.303Z,12.18
2022-10-28T01:18:44.315Z,12.15
2022-10-28T01:21:31.380Z,12.14
2022-10-28T01:24:29.741Z,12.24
2022-10-28T01:27:33.523Z,12.16
2022-10-28T01:30:08.403Z,12.20
2022-10-28T01:33:09.509Z,12.27
2022-10-28T01:36:01.163Z,12.30
2022-10-28T01:39:09.554Z,12.27
2022-10-28T01:41:47.771Z,12.29
2022-10-28T01:44:42.963Z,12.27
2022-10-28T01:47:14.716Z,12.26
2022-10-28T01:50:02.094Z,12.32
2022-10-28T01:52:30.862Z,12.25
2022-10-28T01:55:09.706Z,12.34
2022-10-28T01:57:38.885Z,12.30
2022-10-28T02:00:06.068Z,12.32
2022-10-28T02:02:39.649Z,12.34
2022-10-28T02:05:39.837Z,12.21
2022-10-28T02:08:18.502Z,12.31
2022-10-28T02:11:00.276Z,12.31
2022-10-28T02:13:55.964Z,12.28
2022-10-28T02:16:59.893Z,12.31
2022-10-28T02:19:45.058Z,12.29
2022-10-28T02:22:30.397Z,12.26
2022-10-28T02:25:09.188Z,12.23
2022-10-28T02:27:40.359Z,12.30
2022-10-28T02:30:11.706Z,12.30
2022-10-28T02:32:41.132Z,12.32
2022-10-28T02:35:14.447Z,12.30
2022-10-28T02:37:43.885Z,12.23
2022-10-28T02:40:18.368Z,12.30
2022-10-28T02:42:50.017Z,12.28
2022-10-28T02:45:21.132Z,12.33
2022-10-28T02:48:05.248Z,12.35
2022-10-28T02:50:36.183Z,12.41
2022-10-28T02:53:10.604Z,12.42
2022-10-28T02:55:42.494Z,12.42
2022-10-28T02:58:10.570Z,12.48
2022-10-28T03:00:37.116Z,12.60
2022-10-28T03:03:04.072Z,12.52
2022-10-28T03:05:30.548Z,12.52
2022-10-28T03:07:57.131Z,12.51
2022-10-28T03:10:23.642Z,12.52
2022-10-28T03:12:50.058Z,12.53
2022-10-28T03:15:16.466Z,12.53
2022-10-28T03:17:42.914Z,12.50
2022-10-28T03:20:10.038Z,12.49
2022-10-28T03:22:36.463Z,12.49
2022-10-28T03:25:03.341Z,12.57
2022-10-28T03:27:29.786Z,12.53
2022-10-28T03:29:56.262Z,12.53
2022-10-28T03:34:53.964Z,12.51
2022-10-28T03:37:20.418Z,12.49
2022-10-28T03:39:46.858Z,12.36
2022-10-28T03:42:13.332Z,12.41
2022-10-28T03:44:39.739Z,12.48
2022-10-28T03:47:06.205Z,12.43
2022-10-28T03:49:32.618Z,12.43
2022-10-28T03:51:59.021Z,12.41
2022-10-28T03:54:25.492Z,12.34
2022-10-28T03:56:51.904Z,12.32
2022-10-28T03:59:20.226Z,12.31
2022-10-28T04:01:47.098Z,12.32
2022-10-28T04:04:13.598Z,12.39
2022-10-28T04:06:40.016Z,12.36
2022-10-28T04:09:06.464Z,12.42
2022-10-28T04:11:32.943Z,12.38
2022-10-28T04:13:59.448Z,12.29
2022-10-28T04:16:26.055Z,12.32
2022-10-28T04:18:52.554Z,12.29
2022-10-28T04:21:19.046Z,12.28
2022-10-28T04:23:45.454Z,12.19
2022-10-28T04:26:11.947Z,12.17
2022-10-28T04:28:38.394Z,12.23
2022-10-28T04:31:05.026Z,12.27
2022-10-28T04:33:31.520Z,12.19
2022-10-28T04:35:58.103Z,12.33
2022-10-28T04:40:56.157Z,12.34
2022-10-28T04:43:22.590Z,12.28
2022-10-28T04:45:49.036Z,12.38
2022-10-28T04:48:15.468Z,12.31
2022-10-28T04:50:42.094Z,12.36
2022-10-28T04:53:12.335Z,12.31
2022-10-28T04:55:39.214Z,12.37
2022-10-28T04:58:05.738Z,12.41
2022-10-28T05:00:32.299Z,12.38
2022-10-28T05:03:01.874Z,12.38
2022-10-28T05:05:28.376Z,12.38
2022-10-28T05:07:55.183Z,12.43
2022-10-28T05:10:21.937Z,12.41
2022-10-28T05:12:48.380Z,12.37
2022-10-28T05:15:15.710Z,12.39
2022-10-28T05:17:47.082Z,12.38
2022-10-28T05:20:14.473Z,12.33
2022-10-28T05:22:53.725Z,12.36
2022-10-28T05:25:21.592Z,12.33
2022-10-28T05:27:48.058Z,12.33
2022-10-28T05:30:15.223Z,12.29
2022-10-28T05:32:41.800Z,12.35
2022-10-28T05:35:09.406Z,12.32
2022-10-28T05:37:36.204Z,12.35
2022-10-28T05:40:03.093Z,12.33
2022-10-28T05:42:29.563Z,12.33
2022-10-28T05:44:55.973Z,12.38
2022-10-28T05:47:22.430Z,12.40
2022-10-28T05:49:48.849Z,12.40
2022-10-28T05:52:15.262Z,12.37
2022-10-28T05:54:41.674Z,12.38
2022-10-28T05:57:08.112Z,12.43
2022-10-28T05:59:34.522Z,12.38
2022-10-28T06:02:00.955Z,12.34
2022-10-28T06:04:27.484Z,12.40
2022-10-28T06:06:56.788Z,12.34
2022-10-28T06:09:23.271Z,12.39
2022-10-28T06:11:48.217Z,12.38
2022-10-28T06:14:14.630Z,12.31
2022-10-28T06:16:42.260Z,12.31
2022-10-28T06:19:08.769Z,12.33
2022-10-28T06:21:35.229Z,12.34
2022-10-28T06:24:01.789Z,12.34
2022-10-28T06:26:28.234Z,12.30
2022-10-28T06:28:54.773Z,12.33
2022-10-28T06:31:21.240Z,12.35
2022-10-28T06:33:47.646Z,12.38
2022-10-28T06:36:14.147Z,12.34
2022-10-28T06:38:40.679Z,12.41
2022-10-28T06:41:07.112Z,12.41
2022-10-28T06:43:33.554Z,12.43
2022-10-28T06:46:01.786Z,12.46
2022-10-28T06:48:29.727Z,12.49
2022-10-28T06:50:57.577Z,12.49
2022-10-28T06:53:24.957Z,12.49
2022-10-28T06:55:56.288Z,12.42
2022-10-28T06:58:22.718Z,12.48
2022-10-28T07:00:49.204Z,12.61
2022-10-28T07:03:16.208Z,12.66
2022-10-28T07:05:42.964Z,12.65
2022-10-28T07:08:09.420Z,12.78
2022-10-28T07:10:35.849Z,12.72
2022-10-28T07:13:02.301Z,12.78
2022-10-28T07:15:28.831Z,12.79
2022-10-28T07:17:57.437Z,12.76
2022-10-28T07:20:26.117Z,12.85
2022-10-28T07:23:00.306Z,12.87
2022-10-28T07:25:30.730Z,12.95
2022-10-28T07:27:58.582Z,12.88
2022-10-28T07:30:25.705Z,12.98
2022-10-28T07:32:52.685Z,12.98
2022-10-28T07:35:19.960Z,12.95
2022-10-28T07:37:46.522Z,13.06
2022-10-28T07:40:13.402Z,13.14
2022-10-28T07:42:39.890Z,13.14
2022-10-28T07:45:06.757Z,13.15
2022-10-28T07:47:33.235Z,13.05
2022-10-28T07:49:59.720Z,13.29
2022-10-28T07:52:26.182Z,13.32
2022-10-28T07:54:52.661Z,13.35
2022-10-28T07:57:19.437Z,13.33
2022-10-28T07:59:45.868Z,13.39
2022-10-28T08:02:17.578Z,13.37
2022-10-28T08:04:44.261Z,13.29
2022-10-28T08:07:11.772Z,13.41
2022-10-28T08:09:38.497Z,13.44
2022-10-28T08:12:05.748Z,13.55
2022-10-28T08:14:32.265Z,13.42
2022-10-28T08:16:58.708Z,13.64
2022-10-28T08:19:25.139Z,13.59
2022-10-28T08:21:51.617Z,13.66
2022-10-28T08:24:18.057Z,13.48
2022-10-28T08:26:44.478Z,13.73
2022-10-28T08:29:12.164Z,13.61
2022-10-28T08:31:39.332Z,13.66
2022-10-28T08:34:06.576Z,13.82
2022-10-28T08:36:33.724Z,13.82
2022-10-28T08:39:01.609Z,13.73
2022-10-28T08:41:37.430Z,14.09
2022-10-28T08:44:31.894Z,14.05
2022-10-28T08:47:01.274Z,13.94
2022-10-28T08:49:32.142Z,13.92
2022-10-28T08:52:00.808Z,14.25
2022-10-28T08:54:29.409Z,14.16
2022-10-28T08:57:00.681Z,14.35
2022-10-28T08:59:37.684Z,14.48
2022-10-28T09:02:26.030Z,14.33
2022-10-28T09:05:21.864Z,14.71
2022-10-28T09:07:48.684Z,14.93
2022-10-28T09:10:17.158Z,14.95
2022-10-28T09:13:24.726Z,15.09
2022-10-28T09:16:02.446Z,14.91
2022-10-28T09:18:39.571Z,15.05
2022-10-28T09:21:15.858Z,15.16
2022-10-28T09:23:58.550Z,15.05
2022-10-28T09:26:40.258Z,15.25
2022-10-28T09:29:43.237Z,14.96
2022-10-28T09:32:25.944Z,14.98
2022-10-28T09:35:09.567Z,14.98
2022-10-28T09:37:40.398Z,15.00
2022-10-28T09:40:19.615Z,15.15
2022-10-28T09:42:58.608Z,15.21
2022-10-28T09:45:32.238Z,15.16
2022-10-28T09:48:03.347Z,15.21
2022-10-28T09:50:31.859Z,15.16
2022-10-28T09:53:53.132Z,15.08
2022-10-28T09:57:01.001Z,15.04
2022-10-28T09:59:27.693Z,15.63
2022-10-28T10:01:54.657Z,15.87
2022-10-28T10:04:34.366Z,15.81
2022-10-28T10:07:14.997Z,16.14
2022-10-28T10:09:44.031Z,15.85
2022-10-28T10:12:12.441Z,16.05
2022-10-28T10:14:47.756Z,16.33
2022-10-28T10:17:26.966Z,16.33
2022-10-28T10:20:11.583Z,16.27
2022-10-28T10:22:40.708Z,16.61
2022-10-28T10:25:19.361Z,16.62
2022-10-28T10:28:14.391Z,16.61
2022-10-28T10:30:53.427Z,16.60
2022-10-28T10:33:31.164Z,16.69
2022-10-28T10:36:02.241Z,16.67
2022-10-28T10:38:30.330Z,16.69
2022-10-28T10:40:57.221Z,16.50
2022-10-28T10:43:31.001Z,16.69
2022-10-28T10:46:13.812Z,16.56
2022-10-28T10:48:40.812Z,16.75
2022-10-28T10:51:12.542Z,17.09
2022-10-28T10:53:40.027Z,17.30
2022-10-28T10:56:10.657Z,17.36
2022-10-28T10:58:51.534Z,17.04
2022-10-28T11:01:22.165Z,17.08
2022-10-28T11:06:34.087Z,17.15
2022-10-28T11:09:25.431Z,17.21
2022-10-28T11:11:55.429Z,17.16
2022-10-28T11:14:29.295Z,17.11
2022-10-28T11:16:58.435Z,16.95
2022-10-28T11:19:33.771Z,17.03
2022-10-28T11:22:17.131Z,17.10
2022-10-28T11:25:14.075Z,17.06
2022-10-28T11:27:43.325Z,16.99
2022-10-28T11:30:19.866Z,17.03
2022-10-28T11:33:28.663Z,17.32
2022-10-28T11:35:59.454Z,17.49
2022-10-28T11:38:32.030Z,17.57
2022-10-28T11:41:29.032Z,17.58
2022-10-28T11:44:03.829Z,17.84
2022-10-28T11:46:53.338Z,17.79
2022-10-28T11:49:32.000Z,17.76
2022-10-28T11:52:20.250Z,17.70
2022-10-28T11:55:03.334Z,17.79
2022-10-28T11:57:58.481Z,17.84
2022-10-28T12:00:40.773Z,17.59
2022-10-28T12:03:19.324Z,17.51
2022-10-28T12:06:13.389Z,17.67
2022-10-28T12:09:01.431Z,17.79
2022-10-28T12:11:48.811Z,17.85
2022-10-28T12:14:22.125Z,17.92
2022-10-28T12:16:59.057Z,17.98
2022-10-28T12:19:31.632Z,18.00
2022-10-28T12:22:14.771Z,18.12
2022-10-28T12:24:44.639Z,18.23
2022-10-28T12:27:18.267Z,18.19
2022-10-28T12:29:51.249Z,18.36
2022-10-28T12:32:27.708Z,18.32
2022-10-28T12:34:56.891Z,18.27
2022-10-28T12:37:41.094Z,18.20
2022-10-28T12:40:24.479Z,18.11
2022-10-28T12:43:17.008Z,18.09
2022-10-28T12:45:43.893Z,18.04
2022-10-28T12:48:30.042Z,18.04
2022-10-28T12:51:21.347Z,17.94
2022-10-28T12:53:58.346Z,17.90
2022-10-28T12:56:31.779Z,17.72
2022-10-28T12:59:06.501Z,17.87
2022-10-28T13:01:35.717Z,17.82
2022-10-28T13:04:02.745Z,17.90
2022-10-28T13:07:00.563Z,17.97
2022-10-28T13:09:46.879Z,18.04
2022-10-28T13:12:45.002Z,17.90
2022-10-28T13:15:26.792Z,17.85
2022-10-28T13:18:14.961Z,17.88
2022-10-28T13:20:57.668Z,18.01
2022-10-28T13:23:57.990Z,18.01
2022-10-28T13:26:31.743Z,18.10
2022-10-28T13:29:01.248Z,18.15
2022-10-28T13:31:46.883Z,18.20
2022-10-28T13:34:16.039Z,18.26
2022-10-28T13:36:45.107Z,18.19
2022-10-28T13:39:23.325Z,18.17
2022-10-28T13:42:12.610Z,18.21
2022-10-28T13:44:50.891Z,18.13
2022-10-28T13:47:17.245Z,18.18
2022-10-28T13:50:13.181Z,18.21
2022-10-28T13:52:41.629Z,18.16
2022-10-28T13:55:14.216Z,18.04
2022-10-28T13:57:48.116Z,18.00
2022-10-28T14:00:17.549Z,17.86
2022-10-28T14:02:56.953Z,17.82
2022-10-28T14:05:32.555Z,17.84
2022-10-28T14:08:03.811Z,17.75
2022-10-28T14:10:57.692Z,17.77
2022-10-28T14:13:24.382Z,17.70
2022-10-28T14:16:14.732Z,17.95
2022-10-28T14:18:44.510Z,17.78
2022-10-28T14:21:11.890Z,17.56
2022-10-28T14:23:44.291Z,17.55
2022-10-28T14:26:10.748Z,17.44
2022-10-28T14:28:37.105Z,17.52
2022-10-28T14:31:12.756Z,17.35
2022-10-28T14:33:42.034Z,17.45
2022-10-28T14:36:17.418Z,17.74
2022-10-28T14:39:06.439Z,17.64
2022-10-28T14:42:17.766Z,17.39
2022-10-28T14:44:57.940Z,17.66
2022-10-28T14:47:33.483Z,17.54
2022-10-28T14:50:15.250Z,17.36
2022-10-28T14:52:44.336Z,17.44
2022-10-28T14:55:37.284Z,17.13
2022-10-28T14:58:21.567Z,17.31
2022-10-28T15:01:17.242Z,17.28
2022-10-28T15:03:57.619Z,17.24
2022-10-28T15:06:30.952Z,17.20
2022-10-28T15:09:28.836Z,17.25
2022-10-28T15:12:05.809Z,17.11
2022-10-28T15:14:37.758Z,17.14
2022-10-28T15:17:12.697Z,17.24
2022-10-28T15:19:39.180Z,16.96
2022-10-28T15:22:12.160Z,16.80
2022-10-28T15:24:41.661Z,16.76
2022-10-28T15:27:13.554Z,16.72
2022-10-28T15:29:42.347Z,16.69
2022-10-28T15:32:21.965Z,16.96
2022-10-28T15:34:49.038Z,16.89
2022-10-28T15:37:17.886Z,16.96
2022-10-28T15:39:49.233Z,16.76
2022-10-28T15:42:36.914Z,16.79
2022-10-28T15:45:04.089Z,16.89
2022-10-28T15:47:36.831Z,16.73
2022-10-28T15:50:33.421Z,16.65
2022-10-28T15:53:21.145Z,16.63
2022-10-28T15:56:06.893Z,16.60
2022-10-28T15:58:39.039Z,16.64
2022-10-28T16:01:28.673Z,16.69
2022-10-28T16:03:55.339Z,16.43
2022-10-28T16:06:33.739Z,16.54
2022-10-28T16:09:09.247Z,16.43
2022-10-28T16:11:41.271Z,16.35
2022-10-28T16:14:33.699Z,16.38
2022-10-28T16:17:16.532Z,16.54
2022-10-28T16:20:00.764Z,16.43
2022-10-28T16:22:29.762Z,16.32
2022-10-28T16:24:57.395Z,16.28
2022-10-28T16:27:27.273Z,16.25
2022-10-28T16:29:54.066Z,16.21
2022-10-28T16:32:27.526Z,16.16
2022-10-28T16:34:55.192Z,16.24
2022-10-28T16:37:27.513Z,16.01
2022-10-28T16:39:54.768Z,16.19
2022-10-28T16:42:22.531Z,16.08
2022-10-28T16:44:49.038Z,15.90
2022-10-28T16:47:18.042Z,15.80
2022-10-28T16:49:45.213Z,16.10
2022-10-28T16:52:17.578Z,16.03
2022-10-28T16:54:44.053Z,15.95
2022-10-28T16:57:10.613Z,16.07
2022-10-28T16:59:37.238Z,16.11
2022-10-28T17:02:05.127Z,15.97
2022-10-28T17:04:31.829Z,16.03
2022-10-28T17:06:58.242Z,16.15
2022-10-28T17:09:24.663Z,15.95
2022-10-28T17:11:51.082Z,15.86
2022-10-28T17:14:17.510Z,15.81
2022-10-28T17:16:43.947Z,15.81
2022-10-28T17:19:10.452Z,15.90
2022-10-28T17:21:36.859Z,15.92
2022-10-28T17:24:04.325Z,15.84
2022-10-28T17:26:30.799Z,15.66
2022-10-28T17:28:57.212Z,15.83
2022-10-28T17:31:25.183Z,15.59
2022-10-28T17:33:55.537Z,15.75
2022-10-28T17:36:23.130Z,15.79
2022-10-28T17:38:49.657Z,15.71
2022-10-28T17:41:16.107Z,15.76
2022-10-28T17:43:42.529Z,15.50
2022-10-28T17:46:09.923Z,15.69
2022-10-28T17:48:36.744Z,15.40
2022-10-28T17:51:03.271Z,15.47
2022-10-28T17:53:29.679Z,15.51
2022-10-28T17:55:57.929Z,15.49
2022-10-28T17:58:25.045Z,15.42
2022-10-28T18:01:02.522Z,15.47
2022-10-28T18:03:32.725Z,15.43
2022-10-28T18:06:03.585Z,15.26
2022-10-28T18:08:34.395Z,15.08
2022-10-28T18:11:00.893Z,15.33
2022-10-28T18:13:28.460Z,15.19
2022-10-28T18:15:54.954Z,15.31
2022-10-28T18:18:21.406Z,15.33
2022-10-28T18:20:55.160Z,15.09
2022-10-28T18:23:23.089Z,15.11
2022-10-28T18:26:01.195Z,15.30
2022-10-28T18:28:29.804Z,15.10
2022-10-28T18:31:07.921Z,15.24
2022-10-28T18:33:34.671Z,15.08
2022-10-28T18:36:10.889Z,15.20
2022-10-28T18:38:37.348Z,15.16
2022-10-28T18:41:04.026Z,15.02
2022-10-28T18:43:30.562Z,14.92
2022-10-28T18:46:02.213Z,14.99
2022-10-28T18:48:30.339Z,15.03
2022-10-28T18:51:01.876Z,15.11
2022-10-28T18:53:28.649Z,15.04
2022-10-28T18:56:00.682Z,15.02
2022-10-28T18:58:27.651Z,14.92
2022-10-28T19:00:54.059Z,14.78
2022-10-28T19:03:23.450Z,14.73
2022-10-28T19:05:49.872Z,14.93
2022-10-28T19:08:16.307Z,14.89
2022-10-28T19:10:42.738Z,14.84
2022-10-28T19:13:09.217Z,14.87
2022-10-28T19:15:40.042Z,14.80
2022-10-28T19:18:06.483Z,14.77
2022-10-28T19:20:32.901Z,14.82
2022-10-28T19:22:59.651Z,14.90
2022-10-28T19:25:26.271Z,14.89
2022-10-28T19:27:52.922Z,14.94
2022-10-28T19:30:19.429Z,14.85
2022-10-28T19:32:45.852Z,14.92
2022-10-28T19:35:12.279Z,14.82
2022-10-28T19:37:38.718Z,14.81
2022-10-28T19:40:05.588Z,14.82
2022-10-28T19:42:32.008Z,14.64
2022-10-28T19:45:00.775Z,14.71
2022-10-28T19:47:27.390Z,14.70
2022-10-28T19:49:53.808Z,14.65
2022-10-28T19:52:20.231Z,14.72
2022-10-28T19:54:46.643Z,14.77
2022-10-28T19:59:44.453Z,14.66
2022-10-28T20:02:11.431Z,14.51
2022-10-28T20:04:37.959Z,14.59
2022-10-28T20:07:04.388Z,14.59
2022-10-28T20:09:30.809Z,14.61
2022-10-28T20:11:57.257Z,14.52
2022-10-28T20:14:23.738Z,14.51
2022-10-28T20:16:50.218Z,14.55
2022-10-28T20:19:16.625Z,14.56
2022-10-28T20:21:44.496Z,14.51
2022-10-28T20:24:10.913Z,14.49
2022-10-28T20:26:38.622Z,14.42
2022-10-28T20:29:06.770Z,14.47
2022-10-28T20:31:33.529Z,14.34
2022-10-28T20:34:03.438Z,14.42
2022-10-28T20:36:31.032Z,14.35
2022-10-28T20:39:02.693Z,14.32
2022-10-28T20:41:31.812Z,14.35
2022-10-28T20:43:58.427Z,14.30
2022-10-28T20:46:26.052Z,14.26
2022-10-28T20:48:54.212Z,14.28
2022-10-28T20:51:21.926Z,14.27
2022-10-28T20:53:48.409Z,14.34
2022-10-28T20:56:17.407Z,14.33
2022-10-28T20:58:43.928Z,14.26
2022-10-28T21:01:20.951Z,14.15
2022-10-28T21:03:48.294Z,14.10
2022-10-28T21:06:16.506Z,14.13
2022-10-28T21:08:43.730Z,14.16
2022-10-28T21:11:13.505Z,14.15
2022-10-28T21:13:42.189Z,14.21
2022-10-28T21:16:11.008Z,14.07
2022-10-28T21:18:38.914Z,14.07
2022-10-28T21:21:05.770Z,13.99
2022-10-28T21:23:32.693Z,14.13
2022-10-28T21:26:01.517Z,14.08
2022-10-28T21:28:29.989Z,14.12
2022-10-28T21:31:17.028Z,14.09
2022-10-28T21:33:44.139Z,14.08
2022-10-28T21:36:15.838Z,14.15
2022-10-28T21:38:42.501Z,14.05
2022-10-28T21:41:11.860Z,14.04
2022-10-28T21:43:40.403Z,13.99
2022-10-28T21:46:07.388Z,14.00
2022-10-28T21:48:35.307Z,13.98
2022-10-28T21:51:04.826Z,13.73
2022-10-28T21:53:34.556Z,13.84
2022-10-28T21:56:17.448Z,13.80
2022-10-28T21:58:46.399Z,13.89
2022-10-28T22:01:17.553Z,13.96
2022-10-28T22:03:44.061Z,13.93
2022-10-28T22:06:10.994Z,13.73
2022-10-28T22:08:37.481Z,13.80
2022-10-28T22:11:07.093Z,13.51
2022-10-28T22:13:34.233Z,13.60
2022-10-28T22:16:06.334Z,13.70
2022-10-28T22:18:35.234Z,13.59
2022-10-28T22:21:12.801Z,13.40
2022-10-28T22:23:39.191Z,13.37
2022-10-28T22:26:07.815Z,13.35
2022-10-28T22:28:34.599Z,13.40
2022-10-28T22:31:06.102Z,13.42
2022-10-28T22:33:33.454Z,13.55
2022-10-28T22:36:06.377Z,13.55
2022-10-28T22:38:32.911Z,13.61
2022-10-28T22:41:13.654Z,13.48
2022-10-28T22:43:41.958Z,13.37
2022-10-28T22:46:09.637Z,13.46
2022-10-28T22:48:36.398Z,13.52
2022-10-28T22:51:03.499Z,13.54
2022-10-28T22:53:29.964Z,13.32
2022-10-28T22:55:57.260Z,13.27
2022-10-28T22:58:24.605Z,13.27
2022-10-28T23:00:51.231Z,13.25
2022-10-28T23:03:18.067Z,13.32
2022-10-28T23:05:44.602Z,13.45
2022-10-28T23:08:14.832Z,13.43
2022-10-28T23:10:41.264Z,13.37
2022-10-28T23:13:11.448Z,13.21
2022-10-28T23:15:37.974Z,13.19
2022-10-28T23:18:04.401Z,13.36
2022-10-28T23:20:30.850Z,13.28
2022-10-28T23:22:57.337Z,13.12
2022-10-28T23:25:23.811Z,13.23
2022-10-28T23:27:50.244Z,13.01
2022-10-28T23:30:16.836Z,13.10
2022-10-28T23:32:43.253Z,13.07
2022-10-28T23:35:09.957Z,13.01
2022-10-28T23:37:36.665Z,13.05
2022-10-28T23:40:03.659Z,13.21
2022-10-28T23:42:30.386Z,13.09
2022-10-28T23:44:56.818Z,12.87
2022-10-28T23:47:23.238Z,12.78
2022-10-28T23:49:49.680Z,12.92
2022-10-28T23:52:16.126Z,12.73
2022-10-28T23:54:42.561Z,12.93
2022-10-28T23:57:09.061Z,12.96
2022-10-28T23:59:35.499Z,12.76
